Time;durP1;ratioP1;P1;durP2;ratioP2;P2;SDS_P1;SDS_P2;PMS_P1;PMS_P2;Temp;Humidity;BMP_temperature;BMP_pressure;BME280_temperature;BME280_humidity;BME280_pressure;Samples;Min_cycle;Max_cycle;Signal;HPM_P1;HPM_P2
2021/06/20 00:00:12;;;;;;;18.17;16.27;;;19.70;99.90;;;;;;5051290;28;20028;-68
2021/06/20 00:02:37;;;;;;;21.30;19.02;;;19.80;99.90;;;;;;5053426;28;20025;-68
2021/06/20 00:05:05;;;;;;;22.75;20.30;;;19.80;99.90;;;;;;5056455;28;20021;-68
2021/06/20 00:07:32;;;;;;;23.95;21.02;;;19.80;99.90;;;;;;5056473;28;20119;-68
2021/06/20 00:09:57;;;;;;;18.55;16.75;;;19.80;99.90;;;;;;5055224;28;20430;-68
2021/06/20 00:12:23;;;;;;;18.23;16.42;;;19.80;99.90;;;;;;5055032;28;20021;-68
2021/06/20 00:14:49;;;;;;;18.63;16.73;;;19.90;99.90;;;;;;5056269;28;20025;-68
2021/06/20 00:17:14;;;;;;;17.08;15.38;;;19.90;99.90;;;;;;5056356;28;20025;-68
2021/06/20 00:19:40;;;;;;;25.45;22.75;;;19.90;99.90;;;;;;5056003;28;20517;-68
2021/06/20 00:22:05;;;;;;;23.20;20.75;;;20.00;99.90;;;;;;5056211;28;20025;-68
2021/06/20 00:24:31;;;;;;;22.88;20.45;;;20.00;99.90;;;;;;5054850;28;20033;-68
2021/06/20 00:26:56;;;;;;;28.45;24.92;;;20.00;99.90;;;;;;5055981;28;20118;-68
2021/06/20 00:29:22;;;;;;;21.20;19.00;;;20.00;99.90;;;;;;5056066;28;20032;-68
2021/06/20 00:31:47;;;;;;;21.05;18.85;;;20.00;99.90;;;;;;5054773;28;20074;-68
2021/06/20 00:34:13;;;;;;;24.58;21.90;;;20.10;99.90;;;;;;5055972;28;20098;-68
2021/06/20 00:36:38;;;;;;;22.55;20.23;;;20.10;99.90;;;;;;5055851;28;20435;-68
2021/06/20 00:39:04;;;;;;;24.88;22.17;;;20.20;99.90;;;;;;5055972;28;20055;-68
2021/06/20 00:41:29;;;;;;;24.95;22.27;;;20.10;99.90;;;;;;5055722;28;20029;-68
2021/06/20 00:43:55;;;;;;;25.58;22.92;;;20.10;99.90;;;;;;5055768;28;20025;-68
2021/06/20 00:46:20;;;;;;;22.10;18.75;;;20.20;99.90;;;;;;5055749;28;20033;-68
2021/06/20 00:48:46;;;;;;;24.65;22.05;;;20.20;99.90;;;;;;5055661;28;20036;-68
2021/06/20 00:51:11;;;;;;;26.30;23.55;;;20.20;99.90;;;;;;5055664;28;20468;-68
2021/06/20 00:53:38;;;;;;;21.00;18.60;;;20.20;99.90;;;;;;5054341;28;20465;-68
2021/06/20 00:56:03;;;;;;;19.63;17.63;;;20.20;99.90;;;;;;5054190;28;20057;-68
2021/06/20 00:58:29;;;;;;;17.45;15.65;;;20.20;99.90;;;;;;5055535;28;20028;-68
2021/06/20 01:00:55;;;;;;;15.77;14.07;;;20.30;99.90;;;;;;5055537;28;20033;-68
2021/06/20 01:03:21;;;;;;;15.77;14.15;;;20.30;99.90;;;;;;5055440;28;20025;-68
2021/06/20 01:05:47;;;;;;;16.38;14.52;;;20.30;99.90;;;;;;5055243;28;20496;-68
2021/06/20 01:08:13;;;;;;;16.20;14.57;;;20.40;99.90;;;;;;5055475;28;20044;-68
2021/06/20 01:10:39;;;;;;;15.93;14.30;;;20.40;99.90;;;;;;5055116;28;20036;-68
2021/06/20 01:13:07;;;;;;;17.95;15.80;;;20.40;99.90;;;;;;5054758;28;20025;-68
2021/06/20 01:15:34;;;;;;;17.00;15.20;;;20.40;99.90;;;;;;5054902;28;20028;-68
2021/06/20 01:17:59;;;;;;;15.35;13.82;;;20.40;99.90;;;;;;5054918;28;20405;-68
2021/06/20 01:20:25;;;;;;;16.33;14.65;;;20.40;99.90;;;;;;5055035;28;20025;-68
2021/06/20 01:22:52;;;;;;;15.52;13.93;;;20.50;99.90;;;;;;5054305;28;20060;-68
2021/06/20 01:25:21;;;;;;;15.68;14.20;;;20.50;99.90;;;;;;5053761;28;20037;-69
2021/06/20 01:27:51;;;;;;;19.13;17.13;;;20.50;99.90;;;;;;5054985;28;20021;-68
2021/06/20 01:30:30;;;;;;;19.63;17.58;;;20.50;99.90;;;;;;5053737;28;20510;-68
2021/06/20 01:32:57;;;;;;;15.23;13.67;;;20.50;99.90;;;;;;5053811;28;20025;-68
2021/06/20 01:35:23;;;;;;;14.88;13.27;;;20.50;99.90;;;;;;5054742;28;20322;-68
2021/06/20 01:37:50;;;;;;;14.50;12.25;;;20.50;99.90;;;;;;5054673;28;20037;-68
2021/06/20 01:40:17;;;;;;;18.08;16.30;;;20.50;99.90;;;;;;5054785;28;20087;-68
2021/06/20 01:42:43;;;;;;;18.63;16.73;;;20.50;99.90;;;;;;5053381;28;20025;-68
2021/06/20 01:45:11;;;;;;;19.08;17.13;;;20.50;99.90;;;;;;5053152;28;20613;-68
2021/06/20 01:47:37;;;;;;;18.08;16.27;;;20.50;99.90;;;;;;5054282;28;20066;-68
2021/06/20 01:50:07;;;;;;;21.83;19.52;;;20.50;99.90;;;;;;5054585;28;20083;-68
2021/06/20 01:52:33;;;;;;;19.45;17.33;;;20.50;99.90;;;;;;5054334;28;20070;-68
2021/06/20 01:54:58;;;;;;;19.40;17.38;;;20.50;99.90;;;;;;5053236;28;20116;-68
2021/06/20 01:57:32;;;;;;;17.08;15.45;;;20.50;99.90;;;;;;5054753;28;20021;-68
2021/06/20 01:59:59;;;;;;;18.13;16.23;;;20.50;99.90;;;;;;5054542;28;20040;-68
2021/06/20 02:02:27;;;;;;;18.13;16.17;;;20.50;99.90;;;;;;5054218;28;20025;-69
2021/06/20 02:04:55;;;;;;;21.40;18.40;;;20.50;99.90;;;;;;5052945;28;20476;-68
2021/06/20 02:07:21;;;;;;;18.23;16.33;;;20.50;99.90;;;;;;5052854;28;20025;-69
2021/06/20 02:09:47;;;;;;;21.15;18.52;;;20.50;99.90;;;;;;5054272;28;20388;-68
2021/06/20 02:12:14;;;;;;;22.25;20.08;;;20.50;99.90;;;;;;5052810;28;20057;-68
2021/06/20 02:14:40;;;;;;;24.05;21.58;;;20.50;99.90;;;;;;5052822;28;20519;-68
2021/06/20 02:17:29;;;;;;;26.95;24.13;;;20.40;99.90;;;;;;5053960;28;20029;-68
2021/06/20 02:20:09;;;;;;;26.38;23.58;;;20.40;99.90;;;;;;5054194;28;20447;-68
2021/06/20 02:22:38;;;;;;;33.30;29.70;;;20.30;99.90;;;;;;5053749;28;20032;-68
2021/06/20 02:25:04;;;;;;;25.80;23.20;;;20.30;99.90;;;;;;5053965;28;20047;-69
2021/06/20 02:27:29;;;;;;;23.10;20.80;;;20.20;99.90;;;;;;5053810;28;20485;-68
2021/06/20 02:29:56;;;;;;;22.88;20.58;;;20.30;99.90;;;;;;5053707;28;20100;-68
2021/06/20 02:32:23;;;;;;;24.45;21.98;;;20.20;99.90;;;;;;5053757;28;20032;-68
2021/06/20 02:34:49;;;;;;;21.73;19.42;;;20.20;99.90;;;;;;5053671;28;20051;-68
2021/06/20 02:37:16;;;;;;;21.08;18.92;;;20.10;99.90;;;;;;5053546;28;20401;-69
2021/06/20 02:39:42;;;;;;;19.00;17.08;;;20.10;99.90;;;;;;5053713;28;20017;-68
2021/06/20 02:42:09;;;;;;;22.45;20.25;;;20.10;99.90;;;;;;5053658;28;20025;-68
2021/06/20 02:44:35;;;;;;;20.40;18.27;;;20.00;99.90;;;;;;5053887;28;20063;-68
2021/06/20 02:47:02;;;;;;;23.23;20.77;;;20.00;99.90;;;;;;5052207;28;20468;-68
2021/06/20 02:49:29;;;;;;;22.27;20.05;;;20.00;99.90;;;;;;5053548;28;20028;-69
2021/06/20 02:51:55;;;;;;;23.45;20.92;;;20.00;99.90;;;;;;5053256;28;20385;-70
2021/06/20 02:54:20;;;;;;;22.88;20.10;;;19.90;99.90;;;;;;5053419;28;20025;-70
2021/06/20 02:56:46;;;;;;;19.92;17.85;;;19.90;99.90;;;;;;5053321;28;20032;-69
2021/06/20 02:59:12;;;;;;;19.35;17.40;;;19.90;99.90;;;;;;5053224;28;20107;-70
2021/06/20 03:01:37;;;;;;;22.67;20.27;;;19.90;99.90;;;;;;5051973;28;20480;-70
2021/06/20 03:04:03;;;;;;;24.05;21.65;;;19.80;99.90;;;;;;5053157;28;20048;-70
2021/06/20 03:06:29;;;;;;;24.75;22.13;;;19.70;99.90;;;;;;5053089;28;20491;-70
2021/06/20 03:08:55;;;;;;;24.05;21.58;;;19.70;99.90;;;;;;5053165;28;20013;-70
2021/06/20 03:11:21;;;;;;;22.25;19.98;;;19.60;99.90;;;;;;5051853;28;20075;-69
2021/06/20 03:13:50;;;;;;;22.13;19.83;;;19.60;99.90;;;;;;5052961;28;20037;-69
2021/06/20 03:16:17;;;;;;;23.48;20.60;;;19.60;99.90;;;;;;5052989;28;20017;-69
2021/06/20 03:18:43;;;;;;;24.25;21.65;;;19.60;99.90;;;;;;5051686;28;20057;-69
2021/06/20 03:21:09;;;;;;;22.63;20.35;;;19.50;99.90;;;;;;5053037;28;20087;-69
2021/06/20 03:23:35;;;;;;;23.30;20.90;;;19.50;99.90;;;;;;5052713;28;20033;-68
2021/06/20 03:26:01;;;;;;;23.40;20.90;;;19.50;99.90;;;;;;5052750;28;20036;-69
2021/06/20 03:28:26;;;;;;;23.55;20.20;;;19.50;99.90;;;;;;5052510;28;20043;-68
2021/06/20 03:30:52;;;;;;;22.67;20.27;;;19.50;99.90;;;;;;5052752;28;20028;-69
2021/06/20 03:33:18;;;;;;;24.17;21.65;;;19.40;99.90;;;;;;5051039;28;20025;-69
2021/06/20 03:35:43;;;;;;;28.90;25.58;;;19.40;99.90;;;;;;5052486;28;20392;-69
2021/06/20 03:38:09;;;;;;;30.25;26.85;;;19.30;99.90;;;;;;5052286;28;20409;-69
2021/06/20 03:40:35;;;;;;;29.90;26.10;;;19.30;99.90;;;;;;5052746;28;20032;-68
2021/06/20 03:43:01;;;;;;;25.17;22.58;;;19.20;99.90;;;;;;5052698;28;20037;-69
2021/06/20 03:45:26;;;;;;;26.27;23.63;;;19.20;99.90;;;;;;5051368;28;20017;-69
2021/06/20 03:47:52;;;;;;;25.35;22.63;;;19.20;99.90;;;;;;5052792;28;20100;-68
2021/06/20 03:50:19;;;;;;;28.25;25.27;;;19.20;99.90;;;;;;5051798;28;20032;-69
2021/06/20 03:52:44;;;;;;;23.88;21.35;;;19.20;99.90;;;;;;5052610;28;20071;-68
2021/06/20 03:55:10;;;;;;;23.98;21.48;;;19.20;99.90;;;;;;5052476;28;20025;-68
2021/06/20 03:57:36;;;;;;;25.15;22.38;;;19.20;99.90;;;;;;5052559;28;20033;-69
2021/06/20 04:00:05;;;;;;;33.15;27.20;;;19.10;99.90;;;;;;5052664;28;20423;-69
2021/06/20 04:02:30;;;;;;;30.40;24.57;;;19.10;99.90;;;;;;5050593;28;20025;-69
2021/06/20 04:04:56;;;;;;;34.63;29.88;;;19.00;99.90;;;;;;5051989;28;20027;-69
2021/06/20 04:07:21;;;;;;;32.97;28.98;;;19.00;99.90;;;;;;5050623;28;20418;-69
2021/06/20 04:09:47;;;;;;;35.22;30.40;;;19.00;99.90;;;;;;5051026;28;20017;-69
2021/06/20 04:12:14;;;;;;;34.60;28.85;;;19.00;99.90;;;;;;5051162;28;20021;-68
2021/06/20 04:14:41;;;;;;;37.45;32.42;;;18.90;99.90;;;;;;5051094;28;20044;-69
2021/06/20 04:17:07;;;;;;;37.33;32.03;;;18.90;99.90;;;;;;5052306;28;20029;-69
2021/06/20 04:19:33;;;;;;;39.35;32.80;;;18.90;99.90;;;;;;5052306;28;20049;-69
2021/06/20 04:22:00;;;;;;;37.00;30.83;;;18.90;99.90;;;;;;5052385;28;20029;-69
2021/06/20 04:24:26;;;;;;;30.23;26.30;;;18.80;99.90;;;;;;5052109;28;20063;-69
2021/06/20 04:26:52;;;;;;;32.90;27.25;;;18.80;99.90;;;;;;5052244;28;20095;-68
2021/06/20 04:29:17;;;;;;;33.25;27.67;;;18.80;99.90;;;;;;5052560;28;20032;-69
2021/06/20 04:31:43;;;;;;;32.85;27.77;;;18.80;99.90;;;;;;5052334;28;20033;-69
2021/06/20 04:34:08;;;;;;;32.63;28.65;;;18.80;99.90;;;;;;5052349;28;20366;-69
2021/06/20 04:36:34;;;;;;;34.42;28.05;;;18.70;99.90;;;;;;5052154;28;20029;-68
2021/06/20 04:39:00;;;;;;;33.25;26.60;;;18.70;99.90;;;;;;5052075;28;20037;-69
2021/06/20 04:41:25;;;;;;;32.10;27.60;;;18.70;99.90;;;;;;5052302;28;20380;-69
2021/06/20 04:46:23;;;;;;;37.33;31.00;;;18.70;99.90;;;;;;5052471;28;20029;-69
2021/06/20 04:49:00;;;;;;;39.40;30.05;;;18.70;99.90;;;;;;5052939;28;20212;-69
2021/06/20 04:51:28;;;;;;;35.28;29.63;;;18.70;99.90;;;;;;5055802;28;20488;-69
2021/06/20 04:53:54;;;;;;;38.13;29.50;;;18.70;99.90;;;;;;5054332;28;20147;-69
2021/06/20 04:56:19;;;;;;;39.05;31.63;;;18.70;99.90;;;;;;5055458;28;20032;-69
2021/06/20 04:58:45;;;;;;;38.05;30.73;;;18.70;99.90;;;;;;5054318;28;20037;-69
2021/06/20 05:01:10;;;;;;;45.65;34.47;;;18.70;99.90;;;;;;5055588;28;20029;-69
2021/06/20 05:03:36;;;;;;;45.78;35.20;;;18.60;99.90;;;;;;5055371;28;20032;-69
2021/06/20 05:06:02;;;;;;;42.45;33.55;;;18.70;99.90;;;;;;5055276;28;20032;-69
2021/06/20 05:08:27;;;;;;;43.33;34.00;;;18.60;99.90;;;;;;5055051;28;20021;-69
2021/06/20 05:10:53;;;;;;;47.50;35.75;;;18.70;99.90;;;;;;5054880;28;20104;-69
2021/06/20 05:13:20;;;;;;;47.75;37.22;;;18.70;99.90;;;;;;5055400;28;20036;-69
2021/06/20 05:15:46;;;;;;;45.50;36.17;;;18.70;99.90;;;;;;5053884;28;20083;-69
2021/06/20 05:18:11;;;;;;;51.40;37.17;;;18.70;99.90;;;;;;5055030;28;20517;-69
2021/06/20 05:20:38;;;;;;;49.28;37.53;;;18.70;99.90;;;;;;5055062;28;20063;-69
2021/06/20 05:23:04;;;;;;;41.50;32.83;;;18.70;99.90;;;;;;5053729;28;20052;-69
2021/06/20 05:25:29;;;;;;;47.67;36.00;;;18.80;99.90;;;;;;5054917;28;20489;-69
2021/06/20 05:27:55;;;;;;;52.00;38.28;;;18.90;99.90;;;;;;5053699;28;20025;-69
2021/06/20 05:30:21;;;;;;;47.97;35.83;;;18.90;99.90;;;;;;5055091;28;20028;-69
2021/06/20 05:32:49;;;;;;;47.22;36.05;;;18.90;99.90;;;;;;5054869;28;20035;-69
2021/06/20 05:35:15;;;;;;;44.05;34.15;;;18.90;99.90;;;;;;5054884;28;20017;-69
2021/06/20 05:37:40;;;;;;;46.63;34.00;;;18.90;99.90;;;;;;5053431;28;20028;-69
2021/06/20 05:40:06;;;;;;;49.17;37.42;;;19.00;99.90;;;;;;5054532;28;20037;-69
2021/06/20 05:42:32;;;;;;;47.90;35.90;;;19.00;99.90;;;;;;5054158;28;20104;-69
2021/06/20 05:44:58;;;;;;;47.03;35.95;;;19.00;99.90;;;;;;5054098;28;20100;-69
2021/06/20 05:47:24;;;;;;;46.42;34.45;;;19.00;99.90;;;;;;5053251;28;20021;-69
2021/06/20 05:49:49;;;;;;;42.40;32.90;;;19.00;99.90;;;;;;5053228;28;20024;-69
2021/06/20 05:52:15;;;;;;;45.75;33.33;;;19.00;99.90;;;;;;5053266;28;20500;-69
2021/06/20 05:54:40;;;;;;;43.20;33.72;;;19.00;99.90;;;;;;5054315;28;20028;-69
2021/06/20 05:57:06;;;;;;;42.65;32.15;;;19.00;99.90;;;;;;5054022;28;20025;-69
2021/06/20 05:59:32;;;;;;;40.60;30.55;;;19.00;99.90;;;;;;5052868;28;20025;-68
2021/06/20 06:01:57;;;;;;;44.65;33.90;;;19.00;99.90;;;;;;5054826;28;20079;-68
2021/06/20 06:04:24;;;;;;;44.83;34.65;;;19.00;99.90;;;;;;5052869;28;20031;-69
2021/06/20 06:06:50;;;;;;;47.10;34.50;;;19.00;99.90;;;;;;5054134;28;20021;-68
2021/06/20 06:09:15;;;;;;;45.53;33.25;;;19.00;99.90;;;;;;5054276;28;20096;-69
2021/06/20 06:11:41;;;;;;;45.17;33.75;;;19.00;99.90;;;;;;5052936;28;20376;-69
2021/06/20 06:14:07;;;;;;;41.67;32.58;;;19.00;99.90;;;;;;5052805;28;20025;-69
2021/06/20 06:16:32;;;;;;;46.28;34.95;;;19.00;99.90;;;;;;5056829;28;20131;-69
2021/06/20 06:18:58;;;;;;;45.40;34.13;;;19.00;99.90;;;;;;5062364;28;20400;-69
2021/06/20 06:21:23;;;;;;;46.83;34.25;;;19.00;99.90;;;;;;5063990;28;20032;-69
2021/06/20 06:23:49;;;;;;;41.33;32.25;;;19.00;99.90;;;;;;5060941;28;20062;-68
2021/06/20 06:26:14;;;;;;;37.92;31.00;;;19.10;99.90;;;;;;5059604;28;20096;-69
2021/06/20 06:28:40;;;;;;;43.70;33.72;;;19.10;99.90;;;;;;5063604;28;20365;-69
2021/06/20 06:31:05;;;;;;;51.35;38.55;;;19.20;99.90;;;;;;5063913;28;20021;-69
2021/06/20 06:33:31;;;;;;;47.10;37.33;;;19.30;99.90;;;;;;5060896;28;20035;-69
2021/06/20 06:35:57;;;;;;;44.38;35.60;;;19.30;99.90;;;;;;5063606;28;20031;-69
2021/06/20 06:38:22;;;;;;;45.45;36.58;;;19.30;99.90;;;;;;5062158;28;20021;-69
2021/06/20 06:40:48;;;;;;;48.20;37.40;;;19.40;99.90;;;;;;5061071;28;20028;-68
2021/06/20 06:43:14;;;;;;;47.35;37.13;;;19.40;99.90;;;;;;5055911;28;20043;-69
2021/06/20 06:45:40;;;;;;;50.10;37.92;;;19.50;99.90;;;;;;5053271;28;20029;-69
2021/06/20 06:48:06;;;;;;;51.17;37.90;;;19.50;99.90;;;;;;5053354;28;20107;-68
2021/06/20 06:50:31;;;;;;;49.53;38.83;;;19.50;99.90;;;;;;5053501;28;20021;-69
2021/06/20 06:52:57;;;;;;;44.88;35.83;;;19.60;99.90;;;;;;5052162;28;20035;-68
2021/06/20 06:55:22;;;;;;;49.60;38.60;;;19.70;99.90;;;;;;5052139;28;20029;-68
2021/06/20 06:57:48;;;;;;;44.20;32.58;;;19.70;99.90;;;;;;5051933;28;20032;-68
2021/06/20 07:00:14;;;;;;;42.85;33.88;;;19.80;99.90;;;;;;5053319;28;20025;-69
2021/06/20 07:02:40;;;;;;;42.70;33.40;;;19.80;99.90;;;;;;5049431;28;20033;-68
2021/06/20 07:05:06;;;;;;;46.00;33.33;;;19.80;99.90;;;;;;5050351;28;20075;-68
2021/06/20 07:07:33;;;;;;;41.08;32.83;;;19.90;99.90;;;;;;5052381;28;20022;-68
2021/06/20 07:09:59;;;;;;;40.17;30.90;;;19.90;99.90;;;;;;5052617;28;20024;-68
2021/06/20 07:12:29;;;;;;;39.35;30.40;;;19.90;99.90;;;;;;5051900;28;20009;-68
2021/06/20 07:14:55;;;;;;;35.97;28.20;;;19.90;99.90;;;;;;5050218;28;20381;-68
2021/06/20 07:17:21;;;;;;;34.17;27.15;;;20.00;99.90;;;;;;5052237;28;20021;-68
2021/06/20 07:19:47;;;;;;;36.40;28.13;;;20.10;99.90;;;;;;5052357;28;20053;-68
2021/06/20 07:22:13;;;;;;;36.17;27.92;;;20.10;99.90;;;;;;5049812;28;20052;-68
2021/06/20 07:24:40;;;;;;;35.40;28.40;;;20.20;99.90;;;;;;5052721;28;20063;-68
2021/06/20 07:27:06;;;;;;;34.40;26.70;;;20.30;99.90;;;;;;5051567;28;20067;-68
2021/06/20 07:29:31;;;;;;;33.22;26.92;;;20.30;99.90;;;;;;5052588;28;20025;-68
2021/06/20 07:31:57;;;;;;;29.48;24.10;;;20.20;99.40;;;;;;5052610;28;20465;-68
2021/06/20 07:34:22;;;;;;;29.70;23.88;;;20.20;99.20;;;;;;5052373;28;20032;-69
2021/06/20 07:36:48;;;;;;;28.40;23.05;;;20.20;98.80;;;;;;5052289;28;20097;-69
2021/06/20 07:39:15;;;;;;;28.85;23.05;;;20.30;98.70;;;;;;5052342;28;20104;-69
2021/06/20 07:41:40;;;;;;;31.42;23.17;;;20.30;98.50;;;;;;5050944;28;20158;-69
2021/06/20 07:44:06;;;;;;;30.52;23.50;;;20.30;98.40;;;;;;5051919;28;20111;-69
2021/06/20 07:46:31;;;;;;;28.30;21.25;;;20.30;98.40;;;;;;5051981;28;20021;-68
2021/06/20 07:48:57;;;;;;;27.33;23.67;;;20.30;98.40;;;;;;5050950;28;20107;-68
2021/06/20 07:51:22;;;;;;;28.17;23.63;;;20.30;98.20;;;;;;5050875;28;20021;-68
2021/06/20 07:53:48;;;;;;;29.27;24.25;;;20.30;98.10;;;;;;5052078;28;20025;-68
2021/06/20 07:56:13;;;;;;;27.77;22.73;;;20.30;98.10;;;;;;5052297;28;20029;-68
2021/06/20 07:58:39;;;;;;;25.25;20.63;;;20.40;97.90;;;;;;5050663;28;20017;-68
2021/06/20 08:01:04;;;;;;;25.83;20.48;;;20.50;97.80;;;;;;5051940;28;20025;-68
2021/06/20 08:03:32;;;;;;;25.65;20.23;;;20.60;97.30;;;;;;5050889;28;20036;-68
2021/06/20 08:05:58;;;;;;;23.02;18.45;;;20.60;97.00;;;;;;5050991;28;20539;-69
2021/06/20 08:08:23;;;;;;;24.70;18.55;;;20.60;96.60;;;;;;5052372;28;20168;-68
2021/06/20 08:10:49;;;;;;;21.30;17.17;;;20.60;96.30;;;;;;5050972;28;20472;-68
2021/06/20 08:13:16;;;;;;;19.77;16.42;;;20.50;96.20;;;;;;5052197;28;20112;-69
2021/06/20 08:15:42;;;;;;;20.92;17.05;;;20.60;96.30;;;;;;5050419;28;20112;-68
2021/06/20 08:18:07;;;;;;;19.45;15.55;;;20.70;96.20;;;;;;5052072;28;20048;-68
2021/06/20 08:20:33;;;;;;;16.40;13.57;;;20.70;96.20;;;;;;5052444;28;20579;-68
2021/06/20 08:22:58;;;;;;;16.67;14.85;;;20.80;96.20;;;;;;5053103;28;20028;-68
2021/06/20 08:25:24;;;;;;;21.48;17.58;;;20.80;95.90;;;;;;5055322;28;20501;-68
2021/06/20 08:27:49;;;;;;;18.25;14.75;;;20.80;95.70;;;;;;5061162;28;20044;-68
2021/06/20 08:30:15;;;;;;;19.08;13.90;;;20.80;95.60;;;;;;5066159;28;20020;-68
2021/06/20 08:32:41;;;;;;;17.98;13.43;;;20.80;95.70;;;;;;5064378;28;20559;-68
2021/06/20 08:35:08;;;;;;;16.95;13.35;;;20.80;95.70;;;;;;5064633;28;20109;-68
2021/06/20 08:37:34;;;;;;;14.60;12.07;;;20.80;95.70;;;;;;5055872;28;20025;-68
2021/06/20 08:40:00;;;;;;;14.50;12.93;;;20.90;95.60;;;;;;5055343;28;20029;-68
2021/06/20 08:42:25;;;;;;;15.50;12.43;;;20.80;95.40;;;;;;5055138;28;20024;-68
2021/06/20 08:44:51;;;;;;;15.52;12.77;;;20.80;95.20;;;;;;5053543;28;20477;-68
2021/06/20 08:47:17;;;;;;;16.10;13.50;;;20.80;95.20;;;;;;5055835;28;20021;-68
2021/06/20 08:49:45;;;;;;;17.55;13.48;;;20.80;95.20;;;;;;5045830;28;20032;-68
2021/06/20 08:52:11;;;;;;;17.63;13.98;;;20.70;94.90;;;;;;5037829;28;20045;-68
2021/06/20 08:54:37;;;;;;;15.57;12.50;;;20.70;94.90;;;;;;5038425;28;20033;-70
2021/06/20 08:57:05;;;;;;;20.85;14.40;;;20.80;94.80;;;;;;5036509;28;20434;-70
2021/06/20 08:59:31;;;;;;;17.55;13.50;;;20.80;94.80;;;;;;5039745;28;20061;-70
2021/06/20 09:01:57;;;;;;;15.45;12.80;;;20.90;94.60;;;;;;5041944;28;20059;-70
2021/06/20 09:04:23;;;;;;;14.50;11.80;;;21.00;94.50;;;;;;5041925;28;20033;-70
2021/06/20 09:06:49;;;;;;;16.20;11.80;;;21.10;94.30;;;;;;5037299;28;20022;-70
2021/06/20 09:09:33;;;;;;;14.18;11.60;;;21.10;94.10;;;;;;5042351;28;20021;-70
2021/06/20 09:12:10;;;;;;;12.77;10.32;;;21.20;94.00;;;;;;5041436;28;20041;-70
2021/06/20 09:14:45;;;;;;;11.90;10.18;;;21.20;94.10;;;;;;5051814;28;20025;-68
2021/06/20 09:17:10;;;;;;;12.73;10.40;;;21.30;94.10;;;;;;5048230;28;20049;-68
2021/06/20 09:19:37;;;;;;;13.85;11.38;;;21.40;94.10;;;;;;5034418;28;20079;-70
2021/06/20 09:22:08;;;;;;;11.80;10.38;;;21.50;93.90;;;;;;5034114;28;20400;-70
2021/06/20 09:24:34;;;;;;;9.77;8.32;;;21.60;93.80;;;;;;5036965;28;20052;-70
2021/06/20 09:27:01;;;;;;;10.73;8.73;;;21.80;93.70;;;;;;5046424;28;20013;-70
2021/06/20 09:29:34;;;;;;;9.68;8.60;;;22.00;93.60;;;;;;5045697;28;20024;-68
2021/06/20 09:32:06;;;;;;;10.38;9.27;;;22.10;93.30;;;;;;5044527;28;20032;-68
2021/06/20 09:34:43;;;;;;;11.77;9.77;;;22.10;93.00;;;;;;5036269;28;20037;-67
2021/06/20 09:37:09;;;;;;;9.90;8.48;;;22.10;92.50;;;;;;5055255;28;20104;-67
2021/06/20 09:39:35;;;;;;;9.75;8.05;;;22.10;92.70;;;;;;5053654;28;20431;-67
2021/06/20 09:42:05;;;;;;;9.70;7.57;;;22.10;92.40;;;;;;5042240;28;20499;-68
2021/06/20 09:44:41;;;;;;;9.40;7.82;;;22.30;92.30;;;;;;5053610;28;20029;-68
2021/06/20 09:47:10;;;;;;;10.35;9.20;;;22.40;92.00;;;;;;5052911;28;20014;-68
2021/06/20 09:49:36;;;;;;;10.88;8.77;;;22.40;91.50;;;;;;5053221;28;20019;-67
2021/06/20 09:52:02;;;;;;;11.10;9.13;;;22.40;91.40;;;;;;5050871;28;20109;-68
2021/06/20 09:54:30;;;;;;;9.88;8.55;;;22.50;91.40;;;;;;5051336;28;20017;-68
2021/06/20 09:56:56;;;;;;;10.88;9.10;;;22.60;91.00;;;;;;5053771;28;20086;-68
2021/06/20 09:59:29;;;;;;;12.25;9.48;;;22.60;90.80;;;;;;5043813;28;20014;-68
2021/06/20 10:02:09;;;;;;;8.73;7.60;;;22.70;90.80;;;;;;5034043;28;20028;-68
2021/06/20 10:04:38;;;;;;;16.20;10.60;;;22.70;90.70;;;;;;5035344;28;20022;-68
2021/06/20 10:07:04;;;;;;;11.15;8.05;;;22.70;90.60;;;;;;5034964;28;20022;-68
2021/06/20 10:09:32;;;;;;;8.75;6.88;;;22.70;90.40;;;;;;5034854;28;20064;-68
2021/06/20 10:11:58;;;;;;;11.25;8.43;;;22.80;90.60;;;;;;5034050;28;20533;-68
2021/06/20 10:14:25;;;;;;;8.32;6.72;;;22.90;90.20;;;;;;5048472;28;20100;-68
2021/06/20 10:16:53;;;;;;;7.93;6.75;;;22.90;90.00;;;;;;5036981;28;20037;-68
2021/06/20 10:19:23;;;;;;;6.72;6.03;;;23.00;89.20;;;;;;5052570;28;20076;-68
2021/06/20 10:22:10;;;;;;;8.95;6.30;;;23.20;89.70;;;;;;5053186;28;20040;-68
2021/06/20 10:24:53;;;;;;;8.52;6.68;;;23.40;89.50;;;;;;5052671;28;20033;-68
2021/06/20 10:27:38;;;;;;;7.63;6.30;;;23.60;89.00;;;;;;5051157;28;20392;-68
2021/06/20 10:30:09;;;;;;;8.82;7.65;;;23.80;88.30;;;;;;5052636;28;20009;-68
2021/06/20 10:32:46;;;;;;;8.88;7.22;;;23.80;88.10;;;;;;5044937;28;20484;-68
2021/06/20 10:35:18;;;;;;;8.35;7.13;;;24.00;87.90;;;;;;5052666;28;20075;-68
2021/06/20 10:37:44;;;;;;;8.20;6.43;;;24.20;87.50;;;;;;5052019;28;20030;-68
2021/06/20 10:40:29;;;;;;;6.72;6.07;;;24.20;87.40;;;;;;5047875;28;20032;-68
2021/06/20 10:42:57;;;;;;;7.85;6.50;;;24.20;86.50;;;;;;5034124;28;20026;-68
2021/06/20 10:45:37;;;;;;;6.93;6.22;;;24.10;86.20;;;;;;5043654;28;20385;-68
2021/06/20 10:48:17;;;;;;;6.70;5.72;;;24.10;85.90;;;;;;5047273;28;20021;-68
2021/06/20 10:50:48;;;;;;;7.25;5.55;;;24.20;86.10;;;;;;5052729;28;20489;-68
2021/06/20 10:53:14;;;;;;;6.88;6.18;;;24.40;86.40;;;;;;5052113;28;20053;-68
2021/06/20 10:55:45;;;;;;;7.28;6.10;;;24.70;86.10;;;;;;5051982;28;20065;-68
2021/06/20 10:58:46;;;;;;;7.50;6.32;;;24.90;85.50;;;;;;5052042;28;20071;-68
2021/06/20 11:01:17;;;;;;;9.07;7.15;;;25.20;84.60;;;;;;5050895;28;20025;-68
2021/06/20 11:03:53;;;;;;;7.75;6.95;;;25.30;83.70;;;;;;5047171;28;20048;-68
2021/06/20 11:06:21;;;;;;;6.90;5.70;;;25.50;83.20;;;;;;5032280;28;20115;-68
2021/06/20 11:08:52;;;;;;;6.95;5.75;;;25.60;82.00;;;;;;5033230;28;20021;-68
2021/06/20 11:11:24;;;;;;;7.68;5.65;;;25.60;81.40;;;;;;5050519;28;20070;-68
2021/06/20 11:13:55;;;;;;;7.97;6.20;;;25.60;81.30;;;;;;5037334;28;20017;-68
2021/06/20 11:16:37;;;;;;;6.55;4.88;;;25.70;81.00;;;;;;5056231;28;20025;-68
2021/06/20 11:19:08;;;;;;;5.50;4.55;;;25.80;81.20;;;;;;5058502;28;20041;-68
2021/06/20 11:21:40;;;;;;;4.95;4.45;;;26.00;80.90;;;;;;5035790;28;20492;-68
2021/06/20 11:24:07;;;;;;;5.07;4.18;;;26.10;80.30;;;;;;5034087;28;20061;-69
2021/06/20 11:26:33;;;;;;;4.93;4.43;;;26.20;80.30;;;;;;5033545;28;20048;-68
2021/06/20 11:29:04;;;;;;;7.03;6.30;;;26.40;79.80;;;;;;5030970;28;20063;-68
2021/06/20 11:31:31;;;;;;;5.35;4.82;;;26.50;78.80;;;;;;5032397;28;20512;-68
2021/06/20 11:33:57;;;;;;;5.40;4.57;;;26.70;78.00;;;;;;5046738;28;20037;-68
2021/06/20 11:36:26;;;;;;;4.10;3.70;;;26.90;76.60;;;;;;5033937;28;20029;-68
2021/06/20 11:38:52;;;;;;;6.45;5.85;;;27.00;76.10;;;;;;5032089;28;20764;-68
2021/06/20 11:41:21;;;;;;;5.93;5.28;;;27.00;75.20;;;;;;5032186;28;20032;-68
2021/06/20 11:44:01;;;;;;;4.47;4.07;;;27.10;74.60;;;;;;5030315;28;20036;-68
2021/06/20 11:46:32;;;;;;;4.97;4.47;;;27.20;74.00;;;;;;5036335;28;20021;-68
2021/06/20 11:49:05;;;;;;;6.13;5.15;;;27.30;74.60;;;;;;5058407;28;20044;-68
2021/06/20 11:51:35;;;;;;;6.28;5.60;;;27.30;74.60;;;;;;5052335;28;20383;-68
2021/06/20 11:54:04;;;;;;;4.90;4.43;;;27.20;74.80;;;;;;5052165;28;20025;-68
2021/06/20 11:56:30;;;;;;;6.85;5.75;;;27.10;75.10;;;;;;5052157;28;20061;-68
2021/06/20 11:58:56;;;;;;;6.53;5.53;;;27.00;74.80;;;;;;5054746;28;20060;-68
2021/06/20 12:01:21;;;;;;;6.10;4.88;;;27.00;74.90;;;;;;5056386;28;20441;-68
2021/06/20 12:03:47;;;;;;;5.22;4.72;;;27.30;74.80;;;;;;5054661;28;20032;-68
2021/06/20 12:06:13;;;;;;;4.78;4.38;;;27.40;73.90;;;;;;5056055;28;20014;-68
2021/06/20 12:08:38;;;;;;;5.93;4.85;;;27.60;73.10;;;;;;5056240;28;20032;-68
2021/06/20 12:11:04;;;;;;;4.90;4.35;;;27.80;72.20;;;;;;5055985;28;20017;-69
2021/06/20 12:13:40;;;;;;;4.00;3.55;;;27.90;71.40;;;;;;5048682;28;20060;-68
2021/06/20 12:16:06;;;;;;;3.65;3.35;;;28.00;71.40;;;;;;5047290;28;20389;-68
2021/06/20 12:18:32;;;;;;;4.22;2.80;;;28.00;71.80;;;;;;5049672;28;20037;-69
2021/06/20 12:20:58;;;;;;;3.33;3.03;;;28.00;71.10;;;;;;5046746;28;20026;-69
2021/06/20 12:23:33;;;;;;;2.47;2.28;;;28.00;70.80;;;;;;5050775;28;20025;-69
2021/06/20 12:26:00;;;;;;;3.10;2.75;;;28.00;70.70;;;;;;5045974;28;20385;-69
2021/06/20 12:28:26;;;;;;;3.42;3.13;;;28.00;70.50;;;;;;5054663;28;20070;-69
2021/06/20 12:30:54;;;;;;;3.47;3.15;;;28.00;70.30;;;;;;5055309;28;20017;-69
2021/06/20 12:33:25;;;;;;;3.40;3.00;;;27.90;70.30;;;;;;5054557;28;20060;-69